Time;durP1;ratioP1;P1;durP2;ratioP2;P2;SDS_P1;SDS_P2;PMS_P1;PMS_P2;Temp;Humidity;BMP_temperature;BMP_pressure;BME280_temperature;BME280_humidity;BME280_pressure;Samples;Min_cycle;Max_cycle;Signal;HPM_P1;HPM_P2
2023/05/29 00:01:45;;;;;;;3.00;2.20;;;14.60;51.20;;;14.22;52.26;98005.69;5013883;28;21046;-81
2023/05/29 00:04:14;;;;;;;3.00;2.10;;;14.50;51.50;;;14.15;52.25;98000.38;4985026;28;20465;-83
2023/05/29 00:06:41;;;;;;;4.70;2.40;;;14.50;51.80;;;14.12;52.50;98006.28;5015936;28;20797;-81
2023/05/29 00:09:09;;;;;;;3.13;2.07;;;14.40;51.70;;;14.14;52.73;98036.75;5027500;28;20466;-83
2023/05/29 00:11:36;;;;;;;4.00;2.30;;;14.30;51.80;;;14.17;52.74;98033.56;5014913;28;20470;-82
2023/05/29 00:14:03;;;;;;;3.77;2.10;;;14.30;52.40;;;14.01;52.80;98035.13;5014281;28;20458;-83
2023/05/29 00:16:32;;;;;;;3.03;2.33;;;14.20;52.00;;;13.94;53.06;98031.69;5025578;28;20452;-79
2023/05/29 00:18:59;;;;;;;3.40;2.53;;;14.10;52.40;;;13.89;52.75;98007.16;5022370;28;20469;-82
2023/05/29 00:21:28;;;;;;;2.53;2.00;;;14.20;52.20;;;14.01;53.12;98034.28;5020410;28;20465;-80
2023/05/29 00:23:56;;;;;;;3.00;2.23;;;14.10;52.40;;;13.92;53.22;98028.41;5025206;28;20999;-81
2023/05/29 00:26:23;;;;;;;3.13;2.17;;;14.10;52.50;;;13.89;53.53;98045.16;5006189;28;20449;-83
2023/05/29 00:28:50;;;;;;;2.80;2.40;;;14.00;52.70;;;13.67;53.20;98001.50;5010388;28;20461;-81
2023/05/29 00:31:18;;;;;;;5.70;2.23;;;13.90;52.90;;;13.91;53.50;98037.59;5029971;28;20686;-81
2023/05/29 00:33:45;;;;;;;3.17;2.13;;;14.00;52.80;;;13.95;53.30;98037.97;5029918;28;20494;-82
2023/05/29 00:36:13;;;;;;;5.67;2.53;;;14.00;52.80;;;13.85;53.52;98033.94;5010849;28;20464;-80
2023/05/29 00:38:41;;;;;;;2.60;2.20;;;14.00;53.00;;;13.61;54.30;98022.25;4996563;28;20471;-82
2023/05/29 00:41:14;;;;;;;2.23;1.90;;;13.80;53.20;;;13.69;54.51;98029.22;5010937;28;20455;-81
2023/05/29 00:43:42;;;;;;;3.43;2.60;;;13.80;53.70;;;13.50;54.75;98021.19;5008989;28;20518;-82
2023/05/29 00:46:09;;;;;;;3.70;2.53;;;13.60;54.10;;;13.53;55.36;98031.56;5025694;28;20526;-84
2023/05/29 00:48:36;;;;;;;4.20;2.33;;;13.60;54.50;;;13.60;54.65;98028.75;5038463;28;20482;-84
2023/05/29 00:51:05;;;;;;;5.87;2.40;;;13.70;54.30;;;13.63;54.59;98032.91;5016931;28;20815;-83
2023/05/29 00:53:32;;;;;;;4.13;2.60;;;13.70;54.10;;;13.63;54.33;98027.47;5015791;28;20482;-79
2023/05/29 00:56:02;;;;;;;3.37;2.50;;;13.80;54.20;;;13.67;54.96;98042.22;5009335;28;20461;-82
2023/05/29 00:58:30;;;;;;;3.47;2.90;;;13.80;54.20;;;13.67;54.54;98034.06;5028691;28;20938;-81
2023/05/29 01:00:58;;;;;;;3.47;2.40;;;13.80;54.40;;;13.57;54.64;98038.22;5003323;28;20460;-83
2023/05/29 01:03:25;;;;;;;5.37;2.37;;;13.70;54.40;;;13.40;54.66;98023.63;5015991;28;20480;-84
2023/05/29 01:05:53;;;;;;;2.33;2.07;;;13.70;54.60;;;13.53;54.74;98037.00;5016054;28;20517;-81
2023/05/29 01:08:20;;;;;;;7.97;2.67;;;13.70;54.60;;;13.48;55.07;98038.75;5008514;28;20486;-82
2023/05/29 01:10:48;;;;;;;4.90;2.10;;;13.60;55.00;;;13.31;55.36;98040.25;5012479;28;20470;-83
2023/05/29 01:13:24;;;;;;;2.73;2.07;;;13.50;55.10;;;13.03;55.25;97986.63;5029020;28;20445;-82
2023/05/29 01:15:58;;;;;;;3.47;2.80;;;13.40;55.30;;;13.36;55.14;98025.16;5009871;28;20462;-81
2023/05/29 01:18:40;;;;;;;2.93;1.97;;;13.50;55.30;;;13.31;55.53;98034.81;5011324;28;20459;-84
2023/05/29 01:21:16;;;;;;;3.53;2.40;;;13.50;55.40;;;13.17;55.77;98011.69;5006287;28;20484;-83
2023/05/29 01:24:04;;;;;;;2.93;2.20;;;13.40;55.50;;;13.35;55.75;98028.94;5023295;28;20469;-80
2023/05/29 01:26:58;;;;;;;3.73;2.50;;;13.50;55.70;;;13.29;55.71;98036.09;5004836;28;20662;-85
2023/05/29 01:29:35;;;;;;;3.40;2.30;;;13.40;55.60;;;13.20;55.80;98021.25;5025049;28;20452;-83
2023/05/29 01:32:04;;;;;;;2.90;2.27;;;13.40;55.90;;;13.19;56.28;98028.53;5022723;28;20552;-82
2023/05/29 01:34:31;;;;;;;4.03;2.83;;;13.40;56.20;;;13.18;55.93;98025.00;5024119;28;20455;-82
2023/05/29 01:36:59;;;;;;;3.50;2.60;;;13.30;56.20;;;13.10;55.81;98010.94;5027056;28;20476;-81
2023/05/29 01:39:27;;;;;;;3.27;2.40;;;13.30;56.40;;;13.18;56.14;98024.19;5013111;28;20467;-79
2023/05/29 01:41:56;;;;;;;3.40;2.20;;;13.30;56.40;;;13.08;56.61;98021.19;5035452;28;20444;-81
2023/05/29 01:44:25;;;;;;;4.10;2.50;;;13.30;56.80;;;12.73;56.87;98001.88;5029797;28;20535;-80
2023/05/29 01:46:53;;;;;;;3.57;2.77;;;13.10;57.10;;;12.94;57.16;98020.56;5011322;28;20452;-79
2023/05/29 01:49:24;;;;;;;4.50;2.47;;;13.10;57.30;;;12.77;57.28;98013.09;5024158;28;20461;-82
2023/05/29 01:51:51;;;;;;;2.73;2.20;;;13.00;57.60;;;12.14;58.19;97940.09;5026923;28;20469;-83
2023/05/29 01:54:18;;;;;;;3.30;2.17;;;12.80;58.20;;;12.59;58.25;98022.06;5026499;28;20968;-82
2023/05/29 01:56:47;;;;;;;2.80;2.20;;;12.60;58.80;;;12.50;58.45;98015.31;5022293;28;20457;-82
2023/05/29 01:59:16;;;;;;;6.70;2.70;;;12.60;59.70;;;12.38;59.14;98024.22;5033866;28;20473;-80
2023/05/29 02:01:46;;;;;;;3.10;2.17;;;12.40;60.30;;;12.36;59.21;98023.63;5023253;28;20794;-80
2023/05/29 02:04:13;;;;;;;3.23;2.60;;;12.40;61.20;;;12.18;59.43;98000.88;4989307;28;20449;-82
2023/05/29 02:06:42;;;;;;;2.67;2.17;;;12.40;61.50;;;12.42;58.72;98017.28;5005834;28;20538;-84
2023/05/29 02:09:09;;;;;;;2.70;2.30;;;12.40;61.80;;;12.35;59.68;98008.41;5015851;28;20480;-84
2023/05/29 02:11:37;;;;;;;4.77;2.87;;;12.50;62.40;;;12.14;60.42;98028.66;5010779;28;20458;-82
2023/05/29 02:14:04;;;;;;;4.70;2.20;;;12.30;62.90;;;12.01;60.56;98013.34;5034647;28;20484;-82
2023/05/29 02:16:36;;;;;;;3.83;2.90;;;12.20;63.70;;;11.53;61.16;97933.69;5022813;28;20454;-82
2023/05/29 02:19:03;;;;;;;3.83;2.40;;;12.20;64.70;;;11.97;60.78;98004.84;5009561;28;20643;-83
2023/05/29 02:21:31;;;;;;;3.23;2.83;;;12.00;65.20;;;11.41;61.40;97941.72;5031230;28;20554;-83
2023/05/29 02:23:58;;;;;;;4.37;2.67;;;11.90;66.10;;;11.57;61.89;97968.19;5025720;28;20464;-82
2023/05/29 02:26:25;;;;;;;3.43;2.23;;;11.90;67.10;;;11.33;61.78;97934.69;5007332;28;20470;-80
2023/05/29 02:28:53;;;;;;;3.57;2.67;;;11.90;67.30;;;11.70;62.55;98005.13;5023649;28;20488;-82
2023/05/29 02:31:20;;;;;;;6.57;2.60;;;11.80;68.10;;;11.65;62.70;98004.94;5029242;28;20459;-79
2023/05/29 02:33:49;;;;;;;3.50;2.50;;;11.80;68.60;;;11.69;62.41;98002.63;5007134;28;20462;-82
2023/05/29 02:36:17;;;;;;;4.20;2.30;;;11.80;69.00;;;11.79;61.97;98008.38;5030423;28;20465;-82
2023/05/29 02:38:44;;;;;;;4.13;3.30;;;11.80;69.20;;;11.65;62.55;98004.13;5010164;28;20461;-81
2023/05/29 02:41:11;;;;;;;4.00;2.90;;;11.70;69.10;;;11.41;62.69;97988.53;5028943;28;20459;-83
2023/05/29 02:43:38;;;;;;;3.90;3.10;;;11.60;69.40;;;11.17;63.30;97941.53;5005197;28;20461;-82
2023/05/29 02:46:06;;;;;;;3.57;2.20;;;11.60;70.50;;;11.58;62.62;98010.44;5014646;28;20454;-81
2023/05/29 02:48:33;;;;;;;4.50;3.00;;;11.60;70.40;;;11.29;62.56;97971.38;5012023;28;20982;-81
2023/05/29 02:51:02;;;;;;;3.10;2.70;;;11.50;70.40;;;11.29;62.13;97969.47;5027656;28;20502;-83
2023/05/29 02:53:29;;;;;;;3.40;2.40;;;11.60;70.00;;;11.37;63.07;98000.00;5016228;28;20450;-81
2023/05/29 02:55:57;;;;;;;3.00;2.47;;;11.50;71.00;;;10.96;63.12;97940.84;5014119;28;20471;-83
2023/05/29 02:58:24;;;;;;;4.03;2.53;;;11.40;70.80;;;11.47;63.61;97997.66;5015704;28;20452;-83
2023/05/29 03:00:52;;;;;;;3.00;2.30;;;11.50;71.70;;;11.27;63.35;97995.91;5006282;28;20490;-85
2023/05/29 03:03:19;;;;;;;8.60;2.83;;;11.40;71.90;;;11.17;64.18;97971.25;5022961;28;20467;-83
2023/05/29 03:05:47;;;;;;;4.37;2.13;;;11.40;72.80;;;11.36;63.75;97995.66;5010057;28;20454;-85
2023/05/29 03:08:16;;;;;;;5.33;2.60;;;11.40;72.70;;;11.32;64.57;98006.06;5025600;28;20475;-84
2023/05/29 03:10:43;;;;;;;4.63;2.80;;;11.30;73.10;;;10.96;64.95;97978.69;5035284;28;20458;-84
2023/05/29 03:13:11;;;;;;;4.60;2.90;;;11.30;73.40;;;11.09;65.74;98007.50;5024734;28;20581;-83
2023/05/29 03:15:38;;;;;;;4.97;2.70;;;11.30;73.60;;;10.59;65.39;97936.09;5033930;28;20539;-83
2023/05/29 03:18:06;;;;;;;3.80;3.00;;;11.30;73.80;;;11.08;65.28;97991.50;5027190;28;20534;-81
2023/05/29 03:20:33;;;;;;;3.10;2.40;;;11.30;73.70;;;11.24;64.65;97996.38;5008960;28;20459;-82
2023/05/29 03:23:01;;;;;;;3.10;2.67;;;11.30;73.80;;;11.36;64.03;98003.78;5015086;28;20456;-84
2023/05/29 03:25:31;;;;;;;4.43;3.30;;;11.30;73.60;;;10.91;64.29;97927.97;5011763;28;21139;-84
2023/05/29 03:27:58;;;;;;;3.80;2.80;;;11.40;73.90;;;10.92;64.70;97947.72;5032793;28;20583;-85
2023/05/29 03:30:28;;;;;;;6.23;3.07;;;11.40;74.00;;;11.25;65.47;98005.31;5016404;28;20466;-87
2023/05/29 03:32:56;;;;;;;4.30;3.03;;;11.30;74.40;;;11.27;65.82;98008.63;5026284;28;20516;-86
2023/05/29 03:35:23;;;;;;;6.23;2.63;;;11.30;74.60;;;11.23;65.29;98004.72;5032368;28;20524;-84
2023/05/29 03:37:50;;;;;;;3.60;2.77;;;11.30;75.00;;;11.27;64.91;98012.13;5014978;28;20466;-83
2023/05/29 03:40:17;;;;;;;5.23;2.60;;;11.30;74.80;;;11.22;65.21;97993.06;5016352;28;21076;-83
2023/05/29 03:42:46;;;;;;;4.77;2.90;;;11.40;74.90;;;11.31;65.56;98007.13;5020831;28;20464;-83
2023/05/29 03:45:13;;;;;;;4.03;2.87;;;11.40;75.10;;;11.34;65.69;98014.78;5015532;28;20482;-80
2023/05/29 03:47:40;;;;;;;6.33;3.00;;;11.40;75.40;;;11.26;66.05;98009.69;5011400;28;20462;-82
2023/05/29 03:50:08;;;;;;;4.10;3.20;;;11.50;75.70;;;11.22;66.06;97998.47;5010832;28;20484;-82
2023/05/29 03:52:36;;;;;;;5.07;2.80;;;11.50;75.50;;;11.40;66.56;98021.19;5027499;28;21188;-84
2023/05/29 03:55:03;;;;;;;3.50;2.70;;;11.50;75.80;;;11.41;66.82;98023.69;5023308;28;20933;-80
2023/05/29 03:57:32;;;;;;;4.90;3.33;;;11.50;76.00;;;11.48;66.29;98023.66;5030616;28;20470;-82
2023/05/29 04:00:01;;;;;;;9.70;3.90;;;11.60;75.80;;;11.50;65.89;98032.38;5008230;28;20793;-83
2023/05/29 04:02:28;;;;;;;6.10;4.20;;;11.60;75.70;;;11.75;65.97;98031.50;5005543;28;20468;-82
2023/05/29 04:04:55;;;;;;;6.53;3.70;;;11.80;75.90;;;11.93;65.53;98035.31;5026986;28;20562;-82
2023/05/29 04:07:25;;;;;;;5.30;3.87;;;12.00;75.50;;;12.17;64.68;98026.31;5004628;28;20466;-84
2023/05/29 04:09:52;;;;;;;10.13;4.60;;;12.30;75.00;;;12.86;63.48;98038.81;5028336;28;20558;-84
2023/05/29 04:12:20;;;;;;;7.60;4.00;;;13.00;74.60;;;13.62;60.44;98033.97;5025854;28;20452;-83
2023/05/29 04:14:47;;;;;;;5.93;3.70;;;13.80;72.50;;;14.42;57.92;98039.81;5009781;28;20519;-84
2023/05/29 04:17:16;;;;;;;8.37;4.47;;;14.80;69.80;;;15.32;56.08;98036.63;5021354;28;20454;-83
2023/05/29 04:19:43;;;;;;;3.60;2.87;;;15.70;67.00;;;15.81;52.96;98019.69;5033536;28;20519;-83
2023/05/29 04:22:11;;;;;;;4.23;3.20;;;16.50;63.10;;;16.60;49.60;98043.38;5018912;28;20548;-83
2023/05/29 04:24:38;;;;;;;4.50;3.43;;;17.10;58.90;;;17.19;49.41;98045.41;5038833;28;20466;-83
2023/05/29 04:27:06;;;;;;;4.57;3.10;;;17.80;58.00;;;17.58;48.28;98049.03;5024499;28;20463;-82
2023/05/29 04:29:35;;;;;;;4.03;2.87;;;18.20;56.60;;;18.10;45.42;98056.53;5025461;28;20544;-83
2023/05/29 04:32:04;;;;;;;4.93;3.00;;;18.80;53.70;;;17.99;46.77;98055.63;5016760;28;20458;-80
2023/05/29 04:34:34;;;;;;;5.33;3.17;;;18.70;54.00;;;18.19;45.96;98053.31;5043813;28;20457;-81
2023/05/29 04:37:02;;;;;;;4.30;3.13;;;18.80;53.10;;;18.78;43.26;98048.69;5031793;28;20700;-80
2023/05/29 04:39:30;;;;;;;3.50;2.50;;;19.10;51.50;;;18.74;43.30;98069.47;5035418;28;20481;-82
2023/05/29 04:41:58;;;;;;;3.50;2.70;;;19.50;50.90;;;18.91;42.71;98072.81;5019036;28;20942;-82
2023/05/29 04:44:26;;;;;;;3.47;2.60;;;19.50;50.40;;;19.33;42.20;98078.41;5031365;28;20490;-81
2023/05/29 04:46:54;;;;;;;7.27;2.97;;;19.80;50.30;;;19.31;41.48;98072.38;5014554;28;20524;-83
2023/05/29 04:49:21;;;;;;;3.37;2.50;;;20.10;49.10;;;19.02;42.50;98086.53;5015144;28;20524;-82
2023/05/29 04:51:52;;;;;;;5.37;2.97;;;20.10;49.20;;;18.50;44.03;98097.25;5024940;28;20834;-82
2023/05/29 04:54:20;;;;;;;6.10;3.27;;;19.70;49.70;;;17.87;44.83;98041.34;4990745;28;20795;-83
2023/05/29 04:56:49;;;;;;;3.60;2.77;;;19.30;50.00;;;18.47;44.19;98097.78;5001786;28;20969;-82
2023/05/29 04:59:16;;;;;;;2.87;2.57;;;19.30;50.00;;;18.60;44.16;98089.09;5010618;28;20455;-82
2023/05/29 05:01:44;;;;;;;3.90;2.97;;;19.50;50.00;;;18.35;43.55;98030.44;5023983;28;20490;-82
2023/05/29 05:04:11;;;;;;;3.47;2.87;;;19.50;50.00;;;18.64;44.37;98098.41;5026640;28;20467;-84
2023/05/29 05:06:38;;;;;;;4.70;2.70;;;19.60;49.80;;;19.39;41.75;98097.31;5011792;28;20455;-82
2023/05/29 05:09:07;;;;;;;3.50;2.33;;;20.20;48.80;;;19.74;41.83;98086.66;5005895;28;20563;-81
2023/05/29 05:11:34;;;;;;;2.97;2.67;;;20.30;49.10;;;20.14;39.53;98088.88;5008468;28;20465;-81
2023/05/29 05:14:02;;;;;;;4.77;2.80;;;20.70;48.00;;;20.20;39.85;98085.84;5004012;28;20460;-83
2023/05/29 05:16:29;;;;;;;4.83;2.33;;;21.10;47.80;;;19.54;42.39;98103.91;5007117;28;20978;-82
2023/05/29 05:18:56;;;;;;;4.00;2.70;;;20.60;48.10;;;19.40;42.33;98111.84;5028331;28;20849;-83
2023/05/29 05:21:23;;;;;;;4.20;3.00;;;20.40;48.30;;;20.15;41.14;98104.22;5024018;28;20804;-83
2023/05/29 05:23:51;;;;;;;5.17;3.10;;;20.90;48.10;;;20.57;40.17;98108.53;5027425;28;20485;-82
2023/05/29 05:26:20;;;;;;;4.07;2.87;;;21.40;47.90;;;20.64;40.09;98109.03;5004826;28;20463;-83
2023/05/29 05:28:47;;;;;;;3.77;3.07;;;21.60;47.70;;;19.86;40.46;98044.44;5010584;28;20486;-84
2023/05/29 05:31:15;;;;;;;5.50;2.93;;;21.60;47.40;;;19.94;40.87;98107.78;5033714;28;20473;-84
2023/05/29 05:33:42;;;;;;;2.53;2.33;;;21.10;47.50;;;19.31;42.62;98125.25;5012873;28;20490;-83
2023/05/29 05:36:10;;;;;;;6.27;3.23;;;20.60;47.80;;;20.56;40.47;98095.91;5011025;28;20812;-83
2023/05/29 05:38:37;;;;;;;3.20;2.63;;;20.90;48.10;;;21.70;38.69;98120.06;5025303;28;20451;-84
2023/05/29 05:41:05;;;;;;;3.60;2.27;;;21.60;47.90;;;21.48;38.77;98118.56;5023114;28;20464;-76
2023/05/29 05:43:33;;;;;;;3.20;2.77;;;21.90;47.40;;;21.88;38.24;98118.56;5006302;28;20458;-76
2023/05/29 05:46:01;;;;;;;2.83;2.30;;;22.30;47.50;;;22.21;36.93;98126.25;5021560;28;20456;-71
2023/05/29 05:48:28;;;;;;;4.53;2.80;;;22.60;47.00;;;22.50;36.63;98129.03;4998244;28;20461;-73
2023/05/29 05:50:55;;;;;;;2.47;2.03;;;22.70;46.40;;;21.82;37.92;98140.91;5005705;28;20537;-69
2023/05/29 05:53:23;;;;;;;4.90;2.83;;;22.70;46.30;;;21.94;37.43;98128.41;4989223;28;21143;-68
2023/05/29 05:55:51;;;;;;;4.10;2.80;;;22.80;46.20;;;22.06;37.49;98130.81;4994887;28;20508;-71
2023/05/29 05:58:18;;;;;;;3.93;3.40;;;23.00;46.00;;;21.78;37.92;98124.97;5016258;28;20521;-65
2023/05/29 06:00:46;;;;;;;3.80;2.40;;;22.80;46.10;;;21.57;37.92;98127.03;5003422;28;20479;-66
2023/05/29 06:03:14;;;;;;;4.27;3.20;;;22.60;45.70;;;21.37;37.97;98138.97;4993941;28;20475;-66
2023/05/29 06:05:41;;;;;;;2.73;2.53;;;22.30;45.80;;;22.29;36.60;98136.63;5011322;28;20474;-66
2023/05/29 06:08:09;;;;;;;4.13;2.80;;;23.10;45.80;;;22.14;37.70;98136.78;5018841;28;20489;-66
2023/05/29 06:10:36;;;;;;;4.23;2.63;;;23.00;45.90;;;21.92;37.23;98130.63;5006681;28;20523;-80
2023/05/29 06:13:03;;;;;;;3.37;1.90;;;23.00;45.50;;;22.08;36.55;98144.25;5000637;28;20447;-80
2023/05/29 06:15:30;;;;;;;2.93;2.63;;;22.90;45.10;;;22.13;37.00;98141.44;5004047;28;20535;-80
2023/05/29 06:18:00;;;;;;;2.90;2.47;;;23.00;45.50;;;22.10;35.41;98141.22;5003758;28;20458;-81
2023/05/29 06:20:27;;;;;;;4.00;2.63;;;23.00;44.30;;;20.72;39.74;98137.03;5004631;28;20992;-78
2023/05/29 06:22:54;;;;;;;2.83;2.50;;;22.10;45.50;;;19.80;39.30;98129.44;5012550;28;20476;-77
2023/05/29 06:25:21;;;;;;;4.40;2.70;;;21.10;45.10;;;19.00;40.30;98151.69;4989063;28;20465;-65
2023/05/29 06:27:48;;;;;;;5.80;3.20;;;20.00;44.90;;;18.25;40.62;98156.16;5019147;28;20466;-66
2023/05/29 06:30:16;;;;;;;3.60;2.03;;;19.20;44.80;;;17.75;41.10;98144.53;5021532;28;21345;-65
2023/05/29 06:32:43;;;;;;;3.03;2.27;;;18.50;44.90;;;17.62;42.21;98152.06;5011217;28;20864;-72
2023/05/29 06:35:12;;;;;;;3.00;2.70;;;18.10;45.50;;;17.41;42.72;98151.84;5013395;28;20520;-70
2023/05/29 06:37:39;;;;;;;2.47;2.23;;;17.90;45.90;;;17.61;42.54;98149.59;5013879;28;20459;-72
2023/05/29 06:40:08;;;;;;;3.00;2.20;;;17.90;46.10;;;17.42;42.36;98087.16;5015514;28;20450;-74
2023/05/29 06:42:35;;;;;;;6.10;2.37;;;18.00;46.30;;;18.08;42.07;98154.41;4994782;28;20560;-72
2023/05/29 06:45:03;;;;;;;3.40;2.07;;;18.20;46.40;;;18.23;41.45;98153.72;5014024;28;20529;-73
2023/05/29 06:47:30;;;;;;;3.83;2.60;;;18.40;46.10;;;18.25;41.50;98159.75;5009669;28;20458;-70
2023/05/29 06:49:57;;;;;;;2.73;2.50;;;18.40;46.00;;;18.51;41.38;98167.28;5013041;28;20499;-71
2023/05/29 06:52:26;;;;;;;2.97;2.10;;;18.60;46.30;;;18.60;41.16;98152.03;4996693;28;20465;-71
2023/05/29 06:54:54;;;;;;;3.00;1.90;;;18.80;46.30;;;18.55;40.92;98160.19;4995449;28;20460;-72
2023/05/29 06:57:21;;;;;;;2.90;2.33;;;18.80;45.90;;;18.56;41.79;98150.91;5019508;28;20486;-71
2023/05/29 06:59:48;;;;;;;3.43;2.37;;;18.80;46.60;;;18.72;40.40;98153.72;5001968;28;20517;-71
2023/05/29 07:02:16;;;;;;;2.87;2.10;;;19.00;46.10;;;18.79;40.92;98159.78;4984713;28;20478;-71
2023/05/29 07:04:43;;;;;;;2.30;2.07;;;19.00;46.10;;;18.56;41.32;98145.41;5005308;28;20470;-71
2023/05/29 07:07:10;;;;;;;3.70;2.90;;;19.00;46.20;;;18.76;41.42;98157.59;5002362;28;20462;-73
2023/05/29 07:09:39;;;;;;;3.67;2.60;;;19.10;46.30;;;18.93;40.34;98155.47;5018813;28;20485;-71
2023/05/29 07:12:07;;;;;;;3.40;2.47;;;19.20;46.20;;;18.71;40.98;98130.19;5019657;28;20818;-73
2023/05/29 07:14:35;;;;;;;2.50;2.20;;;19.20;46.30;;;18.67;40.20;98092.41;5020965;28;20467;-72
2023/05/29 07:17:02;;;;;;;3.07;2.40;;;19.20;45.70;;;19.12;40.59;98163.25;5018077;28;20466;-72
2023/05/29 07:19:29;;;;;;;5.00;2.83;;;19.30;46.00;;;18.89;40.34;98109.75;5015036;28;20524;-72
2023/05/29 07:21:58;;;;;;;3.00;2.80;;;19.40;46.10;;;19.35;39.94;98159.22;5019762;28;20466;-73
2023/05/29 07:24:26;;;;;;;2.43;2.07;;;19.50;45.90;;;19.61;39.44;98158.44;5019846;28;20477;-69
2023/05/29 07:26:55;;;;;;;6.53;3.57;;;19.70;45.90;;;19.89;39.39;98159.03;5004156;28;20483;-71
2023/05/29 07:29:23;;;;;;;3.00;2.07;;;20.00;46.00;;;19.92;39.34;98153.84;5030338;28;20498;-77
2023/05/29 07:31:50;;;;;;;4.63;2.00;;;20.10;45.80;;;19.98;38.99;98162.06;5007935;28;20458;-73
2023/05/29 07:34:17;;;;;;;3.03;2.27;;;20.10;45.60;;;19.74;38.77;98162.59;5016603;28;20482;-72
2023/05/29 07:37:03;;;;;;;3.37;2.70;;;20.00;44.90;;;19.49;38.31;98151.31;5001285;28;20453;-71
2023/05/29 07:39:30;;;;;;;2.87;2.40;;;19.90;44.80;;;19.56;38.00;98163.91;5018948;28;20461;-72
2023/05/29 07:42:00;;;;;;;3.17;2.87;;;19.80;44.50;;;19.78;37.96;98167.22;4999649;28;20476;-71
2023/05/29 07:44:28;;;;;;;2.50;2.27;;;19.90;44.70;;;20.03;38.09;98153.88;5021011;28;20455;-69
2023/05/29 07:46:55;;;;;;;5.30;2.50;;;20.10;45.20;;;20.05;37.37;98157.97;5000183;28;20463;-71
2023/05/29 07:49:23;;;;;;;2.63;2.27;;;20.20;44.60;;;20.12;37.94;98156.88;5015499;28;20476;-71
2023/05/29 07:51:51;;;;;;;2.90;2.20;;;20.30;44.90;;;20.36;37.39;98165.38;5004755;28;20464;-71
2023/05/29 07:54:20;;;;;;;2.47;2.07;;;20.40;44.60;;;20.16;36.97;98164.25;4998495;28;20462;-72
2023/05/29 07:56:47;;;;;;;2.80;1.70;;;20.30;44.00;;;20.35;36.09;98163.72;5000513;28;20454;-72
2023/05/29 07:59:16;;;;;;;3.67;2.43;;;20.40;43.90;;;20.34;36.09;98160.13;5020043;28;20462;-71
2023/05/29 08:01:44;;;;;;;2.60;2.20;;;20.40;43.60;;;20.18;36.34;98155.78;5002951;28;20996;-71
2023/05/29 08:04:12;;;;;;;2.53;2.17;;;20.40;43.60;;;20.51;36.02;98165.34;5015761;28;20478;-72
2023/05/29 08:06:42;;;;;;;2.00;1.70;;;20.60;43.70;;;20.54;35.37;98161.19;5001494;28;20463;-72
2023/05/29 08:09:09;;;;;;;4.30;3.40;;;20.70;43.30;;;20.69;35.85;98154.03;4996414;28;20470;-72
2023/05/29 08:11:37;;;;;;;2.10;1.90;;;20.70;43.60;;;21.10;34.74;98159.41;4990470;28;20550;-73
2023/05/29 08:14:05;;;;;;;4.40;2.57;;;21.00;43.30;;;21.03;34.39;98154.22;4996467;28;20458;-70
2023/05/29 08:16:33;;;;;;;3.13;2.03;;;21.10;42.90;;;21.20;33.71;98151.13;5011263;28;20967;-72
2023/05/29 08:19:01;;;;;;;3.43;1.97;;;21.20;42.60;;;21.22;32.81;98145.34;4996436;28;20456;-71
2023/05/29 08:21:29;;;;;;;2.30;1.80;;;21.30;41.90;;;20.76;33.29;98097.72;5018572;28;20549;-71
2023/05/29 08:23:56;;;;;;;3.03;2.17;;;21.20;41.70;;;21.02;32.25;98158.06;5011649;28;20477;-71
2023/05/29 08:26:23;;;;;;;2.70;1.90;;;21.30;41.30;;;20.90;32.66;98163.06;5017188;28;20494;-70
2023/05/29 08:28:50;;;;;;;3.40;2.00;;;21.10;41.10;;;21.21;32.38;98155.53;5015969;28;20467;-72
2023/05/29 08:31:18;;;;;;;3.63;2.47;;;21.30;41.40;;;21.20;32.36;98142.06;5002643;28;20539;-70
2023/05/29 08:33:46;;;;;;;2.93;2.10;;;21.30;41.20;;;21.31;32.29;98154.66;4998052;28;20448;-72
2023/05/29 08:36:14;;;;;;;2.80;2.23;;;21.40;41.40;;;21.16;32.12;98154.72;4996533;28;20478;-73
2023/05/29 08:38:42;;;;;;;2.83;1.90;;;21.30;40.90;;;21.05;32.66;98149.25;5016349;28;20514;-72
2023/05/29 08:41:13;;;;;;;2.17;1.97;;;21.30;41.10;;;21.11;33.55;98143.78;5014346;28;20479;-70
2023/05/29 08:43:42;;;;;;;2.43;2.10;;;21.20;41.50;;;21.04;32.10;98144.06;5018206;28;20862;-71
2023/05/29 08:46:10;;;;;;;2.97;1.90;;;21.20;41.00;;;21.25;33.00;98141.22;4994379;28;20458;-72
2023/05/29 08:48:41;;;;;;;2.40;1.70;;;21.30;41.40;;;20.95;32.58;98092.47;5012579;28;20521;-71
2023/05/29 08:51:11;;;;;;;2.10;1.90;;;21.40;41.40;;;21.21;32.74;98141.78;5014231;28;22279;-72
2023/05/29 08:53:39;;;;;;;3.00;1.97;;;21.30;41.20;;;21.41;31.67;98148.28;4994177;28;20457;-72
2023/05/29 08:56:07;;;;;;;2.80;2.10;;;21.40;40.90;;;21.52;31.89;98132.53;4999459;28;20512;-73
2023/05/29 08:58:35;;;;;;;3.37;1.80;;;21.50;41.00;;;21.76;31.37;98132.69;5026844;28;20450;-70
2023/05/29 09:01:03;;;;;;;2.57;2.37;;;21.70;40.90;;;21.68;30.86;98132.47;5002151;28;20464;-74
2023/05/29 09:03:31;;;;;;;2.60;2.20;;;21.70;40.30;;;21.55;31.10;98079.75;5000832;28;20458;-72
2023/05/29 09:06:00;;;;;;;2.57;2.00;;;21.80;40.40;;;21.67;31.22;98134.41;5024220;28;20451;-72
2023/05/29 09:08:28;;;;;;;2.20;2.00;;;21.80;40.40;;;21.54;31.78;98121.25;5017591;28;20456;-71
2023/05/29 09:10:56;;;;;;;2.37;2.13;;;21.70;40.60;;;21.79;31.62;98121.13;5016557;28;20485;-72
2023/05/29 09:13:24;;;;;;;4.13;2.40;;;21.80;40.70;;;21.69;32.15;98132.19;5018165;28;20522;-72
2023/05/29 09:15:58;;;;;;;2.67;2.47;;;21.80;41.00;;;21.87;31.17;98132.59;4994296;28;20535;-71
2023/05/29 09:18:29;;;;;;;4.77;2.33;;;21.90;40.70;;;21.70;30.40;98125.56;5014470;28;21213;-72
2023/05/29 09:20:57;;;;;;;2.60;1.80;;;21.80;39.90;;;21.76;30.43;98127.19;5001715;28;20477;-72
2023/05/29 09:23:28;;;;;;;2.90;2.30;;;21.80;39.60;;;21.96;30.23;98125.38;5003651;28;20524;-71
2023/05/29 09:25:55;;;;;;;2.20;2.00;;;21.90;39.30;;;22.11;29.99;98131.84;5021966;28;20463;-73
2023/05/29 09:28:25;;;;;;;3.20;2.20;;;22.10;39.50;;;22.12;29.17;98128.81;5011130;28;20494;-72
2023/05/29 09:30:52;;;;;;;3.50;1.87;;;22.10;38.80;;;22.11;29.56;98137.38;5016031;28;20516;-71
2023/05/29 09:33:20;;;;;;;4.00;2.50;;;22.20;39.40;;;21.97;29.37;98132.53;4994223;28;20591;-72
2023/05/29 09:35:50;;;;;;;3.00;2.40;;;22.10;38.80;;;22.03;29.26;98134.09;5021752;28;20505;-72
2023/05/29 09:38:19;;;;;;;2.60;2.27;;;22.00;38.90;;;22.34;29.35;98138.53;5005295;28;20503;-72
2023/05/29 09:40:48;;;;;;;3.90;2.40;;;22.20;39.20;;;22.34;29.44;98136.56;5009268;28;20865;-73
2023/05/29 09:43:17;;;;;;;1.60;1.50;;;22.30;39.00;;;22.52;28.89;98134.25;5016258;28;20467;-72
2023/05/29 09:45:46;;;;;;;5.77;2.10;;;22.50;38.90;;;22.64;28.82;98128.34;5020673;28;20952;-72
2023/05/29 09:48:15;;;;;;;1.80;1.70;;;22.60;38.80;;;22.63;28.53;98130.25;5002647;28;20460;-71
2023/05/29 09:50:45;;;;;;;2.50;2.20;;;22.70;38.70;;;22.76;27.66;98136.19;5006754;28;20467;-71
2023/05/29 09:53:20;;;;;;;3.00;2.30;;;22.80;38.00;;;22.66;27.51;98128.03;5013122;28;20914;-72
2023/05/29 09:55:50;;;;;;;2.57;2.20;;;22.80;37.70;;;22.80;27.74;98137.22;5006483;28;20505;-72
2023/05/29 09:58:19;;;;;;;2.60;2.07;;;22.80;38.00;;;22.72;26.38;98124.94;5001721;28;20836;-72
2023/05/29 10:00:49;;;;;;;3.73;2.07;;;22.80;37.00;;;22.68;26.57;98123.88;5002430;28;20460;-71
2023/05/29 10:03:17;;;;;;;2.90;2.20;;;22.80;37.00;;;22.67;26.81;98132.41;5007010;28;20515;-71
2023/05/29 10:05:50;;;;;;;2.67;2.37;;;22.70;37.00;;;22.77;27.39;98129.56;4991095;28;20994;-73
2023/05/29 10:08:20;;;;;;;2.77;1.90;;;22.80;37.60;;;23.07;26.66;98130.28;5011358;28;20464;-72
2023/05/29 10:10:58;;;;;;;2.67;2.23;;;22.90;37.50;;;23.25;27.04;98125.09;5015533;28;21091;-73
2023/05/29 10:13:27;;;;;;;3.20;1.63;;;23.20;37.90;;;23.32;27.06;98129.16;5004130;28;21110;-72
2023/05/29 10:15:56;;;;;;;2.47;1.87;;;23.30;37.50;;;23.21;26.63;98125.69;5020064;28;20468;-71
2023/05/29 10:18:31;;;;;;;3.23;2.40;;;23.30;37.40;;;22.92;26.43;98112.03;5003240;28;20513;-74
2023/05/29 10:20:59;;;;;;;2.87;1.97;;;23.10;36.90;;;23.02;27.25;98124.88;5011850;28;20461;-71
2023/05/29 10:23:28;;;;;;;2.17;1.97;;;23.10;37.20;;;22.96;25.96;98112.25;5020749;28;20454;-71
2023/05/29 10:26:11;;;;;;;3.63;2.13;;;23.10;36.60;;;22.62;26.21;98078.25;5007169;28;21099;-70